createdAt,value
2023-04-17T00:01:55.457Z,2.87
2023-04-17T00:04:22.831Z,2.60
2023-04-17T00:06:50.090Z,2.70
2023-04-17T00:09:17.267Z,2.70
2023-04-17T00:11:44.486Z,2.73
2023-04-17T00:14:11.625Z,2.97
2023-04-17T00:16:38.907Z,2.80
2023-04-17T00:19:06.071Z,2.80
2023-04-17T00:21:33.281Z,2.70
2023-04-17T00:24:00.440Z,2.77
2023-04-17T00:26:27.575Z,2.73
2023-04-17T00:28:54.728Z,2.53
2023-04-17T00:31:21.865Z,2.70
2023-04-17T00:33:49.079Z,2.80
2023-04-17T00:36:16.320Z,2.70
2023-04-17T00:38:43.451Z,2.90
2023-04-17T00:41:11.339Z,2.70
2023-04-17T00:43:39.071Z,2.70
2023-04-17T00:46:06.653Z,2.40
2023-04-17T00:48:34.680Z,2.50
2023-04-17T00:51:03.375Z,2.80
2023-04-17T00:53:31.723Z,2.87
2023-04-17T00:56:03.187Z,3.03
2023-04-17T00:58:30.641Z,3.00
2023-04-17T01:00:57.929Z,2.53
2023-04-17T01:03:25.341Z,2.53
2023-04-17T01:05:53.020Z,2.40
2023-04-17T01:08:20.315Z,2.77
2023-04-17T01:10:47.447Z,2.83
2023-04-17T01:13:14.677Z,2.87
2023-04-17T01:15:42.878Z,2.70
2023-04-17T01:18:10.172Z,2.57
2023-04-17T01:20:37.645Z,2.40
2023-04-17T01:23:04.864Z,2.50
2023-04-17T01:25:32.054Z,2.50
2023-04-17T01:27:59.197Z,2.67
2023-04-17T01:30:26.422Z,2.80
2023-04-17T01:32:55.193Z,2.50
2023-04-17T01:35:22.615Z,2.53
2023-04-17T01:37:49.812Z,2.53
2023-04-17T01:40:16.999Z,2.50
2023-04-17T01:42:44.168Z,2.70
2023-04-17T01:45:11.630Z,2.60
2023-04-17T01:47:38.793Z,2.60
2023-04-17T01:50:08.914Z,2.57
2023-04-17T01:52:36.510Z,2.60
2023-04-17T01:55:04.417Z,2.50
2023-04-17T01:57:31.936Z,2.60
2023-04-17T01:59:59.093Z,2.30
2023-04-17T02:02:26.450Z,2.47
2023-04-17T02:04:53.780Z,2.60
2023-04-17T02:07:21.896Z,2.80
2023-04-17T02:09:49.073Z,2.70
2023-04-17T02:12:16.447Z,2.63
2023-04-17T02:14:43.683Z,2.90
2023-04-17T02:17:10.851Z,2.70
2023-04-17T02:19:38.069Z,2.60
2023-04-17T02:22:05.274Z,2.70
2023-04-17T02:24:32.594Z,2.60
2023-04-17T02:26:59.786Z,2.80
2023-04-17T02:29:26.942Z,2.60
2023-04-17T02:31:54.115Z,2.60
2023-04-17T02:34:21.297Z,2.53
2023-04-17T02:36:48.432Z,2.40
2023-04-17T02:39:15.581Z,2.50
2023-04-17T02:41:42.728Z,2.57
2023-04-17T02:44:09.851Z,2.70
2023-04-17T02:46:37.022Z,2.77
2023-04-17T02:49:04.237Z,2.60
2023-04-17T02:51:31.385Z,2.73
2023-04-17T02:53:58.553Z,2.57
2023-04-17T02:56:25.768Z,2.60
2023-04-17T02:58:52.887Z,2.70
2023-04-17T03:01:20.104Z,2.50
2023-04-17T03:03:47.635Z,2.53
2023-04-17T03:06:15.107Z,2.80
2023-04-17T03:08:43.328Z,2.60
2023-04-17T03:11:10.520Z,2.40
2023-04-17T03:13:37.741Z,2.60
2023-04-17T03:16:05.366Z,2.60
2023-04-17T03:18:32.640Z,2.60
2023-04-17T03:20:59.809Z,2.57
2023-04-17T03:23:27.007Z,2.70
2023-04-17T03:25:54.921Z,2.60
2023-04-17T03:28:23.790Z,2.43
2023-04-17T03:30:51.440Z,2.47
2023-04-17T03:33:18.745Z,2.63
2023-04-17T03:35:48.623Z,2.40
2023-04-17T03:38:15.822Z,2.90
2023-04-17T03:40:42.997Z,2.50
2023-04-17T03:43:10.446Z,2.63
2023-04-17T03:45:37.574Z,2.73
2023-04-17T03:48:04.830Z,2.80
2023-04-17T03:50:32.531Z,2.70
2023-04-17T03:52:59.694Z,2.80
2023-04-17T03:55:26.885Z,3.10
2023-04-17T03:57:54.108Z,2.70
2023-04-17T04:00:21.524Z,2.80
2023-04-17T04:02:49.271Z,2.40
2023-04-17T04:05:16.658Z,2.70
2023-04-17T04:07:43.827Z,2.90
2023-04-17T04:10:11.332Z,2.90
2023-04-17T04:12:38.491Z,3.00
2023-04-17T04:15:05.894Z,2.90
2023-04-17T04:17:33.142Z,3.30
2023-04-17T04:20:00.539Z,3.20
2023-04-17T04:22:29.140Z,3.23
2023-04-17T04:24:56.317Z,3.20
2023-04-17T04:27:23.456Z,3.13
2023-04-17T04:29:50.691Z,3.03
2023-04-17T04:32:17.873Z,3.00
2023-04-17T04:34:45.324Z,2.93
2023-04-17T04:37:15.344Z,3.10
2023-04-17T04:39:43.132Z,3.20
2023-04-17T04:42:10.628Z,2.80
2023-04-17T04:44:37.993Z,2.80
2023-04-17T04:47:05.284Z,2.97
2023-04-17T04:49:32.587Z,3.50
2023-04-17T04:51:59.764Z,2.90
2023-04-17T04:54:26.998Z,2.73
2023-04-17T04:56:54.189Z,2.70
2023-04-17T04:59:21.385Z,3.23
2023-04-17T05:01:49.277Z,2.90
2023-04-17T05:04:16.592Z,2.90
2023-04-17T05:06:43.821Z,3.17
2023-04-17T05:09:11.181Z,2.90
2023-04-17T05:11:38.582Z,2.57
2023-04-17T05:14:05.816Z,2.67
2023-04-17T05:16:32.990Z,2.70
2023-04-17T05:19:00.383Z,2.60
2023-04-17T05:21:28.794Z,2.60
2023-04-17T05:23:57.713Z,2.70
2023-04-17T05:26:24.894Z,2.87
2023-04-17T05:28:52.091Z,2.80
2023-04-17T05:31:19.364Z,2.97
2023-04-17T05:33:46.545Z,2.83
2023-04-17T05:36:13.769Z,2.87
2023-04-17T05:38:41.044Z,2.90
2023-04-17T05:41:08.457Z,3.00
2023-04-17T05:43:35.705Z,2.97
2023-04-17T05:46:03.150Z,2.97
2023-04-17T05:48:31.519Z,3.03
2023-04-17T05:50:58.830Z,2.90
2023-04-17T05:53:25.988Z,2.90
2023-04-17T05:55:53.114Z,2.60
2023-04-17T05:58:23.681Z,3.33
2023-04-17T06:00:51.879Z,2.90
2023-04-17T06:03:19.695Z,3.10
2023-04-17T06:05:47.450Z,2.77
2023-04-17T06:08:14.765Z,3.50
2023-04-17T06:10:41.962Z,3.30
2023-04-17T06:13:09.186Z,2.90
2023-04-17T06:15:36.561Z,3.20
2023-04-17T06:18:03.782Z,3.17
2023-04-17T06:20:30.935Z,3.20
2023-04-17T06:22:58.147Z,3.40
2023-04-17T06:25:25.445Z,3.17
2023-04-17T06:27:52.701Z,3.20
2023-04-17T06:30:19.891Z,3.40
2023-04-17T06:32:47.073Z,3.33
2023-04-17T06:35:14.260Z,3.67
2023-04-17T06:37:41.387Z,3.57
2023-04-17T06:40:08.931Z,3.30
2023-04-17T06:42:36.178Z,3.70
2023-04-17T06:45:03.346Z,3.70
2023-04-17T06:47:30.756Z,3.60
2023-04-17T06:49:59.859Z,3.63
2023-04-17T06:52:27.389Z,3.40
2023-04-17T06:54:55.909Z,3.23
2023-04-17T06:57:23.287Z,3.40
2023-04-17T06:59:50.445Z,3.43
2023-04-17T07:02:18.098Z,3.50
2023-04-17T07:04:45.602Z,3.13
2023-04-17T07:07:12.810Z,3.60
2023-04-17T07:09:40.016Z,3.30
2023-04-17T07:12:07.163Z,3.80
2023-04-17T07:14:35.352Z,3.80
2023-04-17T07:17:04.251Z,3.47
2023-04-17T07:19:31.401Z,3.40
2023-04-17T07:21:58.560Z,3.77
2023-04-17T07:24:25.701Z,3.57
2023-04-17T07:26:52.854Z,3.63
2023-04-17T07:29:19.992Z,3.00
2023-04-17T07:31:47.159Z,2.80
2023-04-17T07:34:14.372Z,3.03
2023-04-17T07:36:41.501Z,3.63
2023-04-17T07:39:08.749Z,2.80
2023-04-17T07:41:36.099Z,3.50
2023-04-17T07:44:03.625Z,3.10
2023-04-17T07:46:30.805Z,3.07
2023-04-17T07:48:58.002Z,2.97
2023-04-17T07:51:26.104Z,2.90
2023-04-17T07:53:53.270Z,2.90
2023-04-17T07:56:20.477Z,3.20
2023-04-17T07:58:51.809Z,2.73
2023-04-17T08:01:18.964Z,2.70
2023-04-17T08:03:46.527Z,2.57
2023-04-17T08:06:13.968Z,2.63
2023-04-17T08:08:41.244Z,2.60
2023-04-17T08:11:08.394Z,2.37
2023-04-17T08:13:35.528Z,2.33
2023-04-17T08:16:03.541Z,2.20
2023-04-17T08:18:31.995Z,2.50
2023-04-17T08:20:59.127Z,2.27
2023-04-17T08:23:26.298Z,2.33
2023-04-17T08:25:53.426Z,2.60
2023-04-17T08:28:21.112Z,2.50
2023-04-17T08:30:48.302Z,2.33
2023-04-17T08:33:17.085Z,2.40
2023-04-17T08:35:44.645Z,2.50
2023-04-17T08:38:14.119Z,2.57
2023-04-17T08:40:42.909Z,2.50
2023-04-17T08:43:19.408Z,2.53
2023-04-17T08:45:55.209Z,2.37
2023-04-17T08:48:23.155Z,2.27
2023-04-17T08:50:51.623Z,2.27
2023-04-17T08:53:19.520Z,2.40
2023-04-17T08:55:47.213Z,2.20
2023-04-17T08:58:14.740Z,2.60
2023-04-17T09:00:43.273Z,2.50
2023-04-17T09:03:11.567Z,2.53
2023-04-17T09:05:41.780Z,2.30
2023-04-17T09:08:08.945Z,2.47
2023-04-17T09:10:43.525Z,2.60
2023-04-17T09:13:14.903Z,2.40
2023-04-17T09:15:42.555Z,2.37
2023-04-17T09:18:26.141Z,2.37
2023-04-17T09:20:53.725Z,2.43
2023-04-17T09:23:22.884Z,2.30
2023-04-17T09:26:13.600Z,2.20
2023-04-17T09:28:41.081Z,2.40
2023-04-17T09:31:25.562Z,2.40
2023-04-17T09:33:59.820Z,2.53
2023-04-17T09:36:27.452Z,2.40
2023-04-17T09:38:55.924Z,2.43
2023-04-17T09:41:24.231Z,2.53
2023-04-17T09:43:53.546Z,2.20
2023-04-17T09:46:39.048Z,2.67
2023-04-17T09:49:09.406Z,2.30
2023-04-17T09:51:36.637Z,2.80
2023-04-17T09:54:05.710Z,2.50
2023-04-17T09:56:33.972Z,2.53
2023-04-17T09:59:07.161Z,2.37
2023-04-17T10:01:35.667Z,2.50
2023-04-17T10:04:03.949Z,2.73
2023-04-17T10:06:32.311Z,2.67
2023-04-17T10:08:59.534Z,2.43
2023-04-17T10:11:28.255Z,2.30
2023-04-17T10:14:18.530Z,2.60
2023-04-17T10:16:47.209Z,2.53
2023-04-17T10:19:27.746Z,2.33
2023-04-17T10:22:27.906Z,2.70
2023-04-17T10:25:13.191Z,2.33
2023-04-17T10:27:40.808Z,2.50
2023-04-17T10:30:10.269Z,2.40
2023-04-17T10:32:37.875Z,2.20
2023-04-17T10:35:17.426Z,2.40
2023-04-17T10:37:47.984Z,2.30
2023-04-17T10:40:20.808Z,2.40
2023-04-17T10:43:06.817Z,2.60
2023-04-17T10:46:06.828Z,2.30
2023-04-17T10:48:36.338Z,2.40
2023-04-17T10:51:23.901Z,2.40
2023-04-17T10:54:01.024Z,2.33
2023-04-17T10:56:38.395Z,2.20
2023-04-17T10:59:05.712Z,2.50
2023-04-17T11:01:39.411Z,2.50
2023-04-17T11:04:07.371Z,2.30
2023-04-17T11:06:37.566Z,2.40
2023-04-17T11:09:08.011Z,2.83
2023-04-17T11:11:44.161Z,2.40
2023-04-17T11:14:15.641Z,2.50
2023-04-17T11:16:44.235Z,2.60
2023-04-17T11:19:13.172Z,2.63
2023-04-17T11:21:41.030Z,2.40
2023-04-17T11:24:08.221Z,2.50
2023-04-17T11:26:44.998Z,2.23
2023-04-17T11:29:16.635Z,2.60
2023-04-17T11:31:45.339Z,2.40
2023-04-17T11:34:12.854Z,2.50
2023-04-17T11:36:40.031Z,2.57
2023-04-17T11:39:08.338Z,2.42
2023-04-17T11:41:38.656Z,2.35
2023-04-17T11:44:09.396Z,2.45
2023-04-17T11:46:36.963Z,2.55
2023-04-17T11:49:07.574Z,2.50
2023-04-17T11:51:35.015Z,2.58
2023-04-17T11:54:02.202Z,2.40
2023-04-17T11:56:30.076Z,2.72
2023-04-17T11:58:58.005Z,2.67
2023-04-17T12:01:26.356Z,2.50
2023-04-17T12:03:54.784Z,2.63
2023-04-17T12:06:22.196Z,2.55
2023-04-17T12:08:53.903Z,2.38
2023-04-17T12:11:24.764Z,2.50
2023-04-17T12:13:53.076Z,2.45
2023-04-17T12:16:20.658Z,2.67
2023-04-17T12:18:47.957Z,2.47
2023-04-17T12:21:15.354Z,2.60
2023-04-17T12:23:42.879Z,2.83
2023-04-17T12:26:10.374Z,2.50
2023-04-17T12:28:37.668Z,2.40
2023-04-17T12:31:05.332Z,2.47
2023-04-17T12:33:32.862Z,2.55
2023-04-17T12:36:01.198Z,2.40
2023-04-17T12:38:28.492Z,2.50
2023-04-17T12:40:55.878Z,2.25
2023-04-17T12:43:23.172Z,2.60
2023-04-17T12:45:50.579Z,2.72
2023-04-17T12:48:17.764Z,2.60
2023-04-17T12:50:44.969Z,2.60
2023-04-17T12:53:13.440Z,2.63
2023-04-17T12:55:41.364Z,2.95
2023-04-17T12:58:10.769Z,2.50
2023-04-17T13:00:38.532Z,2.50
2023-04-17T13:03:06.284Z,2.60
2023-04-17T13:05:33.595Z,2.60
2023-04-17T13:08:00.803Z,2.85
2023-04-17T13:10:28.056Z,2.50
2023-04-17T13:12:55.598Z,2.53
2023-04-17T13:15:22.755Z,2.53
2023-04-17T13:17:49.986Z,2.53
2023-04-17T13:20:17.163Z,2.70
2023-04-17T13:22:44.846Z,2.72
2023-04-17T13:25:12.015Z,2.40
2023-04-17T13:27:39.150Z,2.67
2023-04-17T13:30:06.753Z,2.42
2023-04-17T13:32:34.907Z,2.97
2023-04-17T13:35:02.941Z,2.80
2023-04-17T13:37:30.153Z,2.70
2023-04-17T13:39:57.341Z,3.15
2023-04-17T13:42:24.576Z,2.90
2023-04-17T13:44:51.699Z,2.97
2023-04-17T13:47:19.029Z,2.80
2023-04-17T13:49:46.394Z,2.95
2023-04-17T13:52:13.623Z,3.00
2023-04-17T13:54:43.632Z,2.95
2023-04-17T13:57:11.113Z,3.17
2023-04-17T13:59:38.250Z,3.15
2023-04-17T14:02:05.564Z,3.25
2023-04-17T14:04:32.976Z,2.75
2023-04-17T14:07:00.249Z,3.20
2023-04-17T14:09:27.410Z,3.00
2023-04-17T14:11:54.635Z,3.00
2023-04-17T14:14:21.780Z,2.73
2023-04-17T14:16:50.888Z,3.87
2023-04-17T14:19:18.420Z,3.07
2023-04-17T14:21:45.654Z,3.20
2023-04-17T14:24:12.921Z,3.20
2023-04-17T14:26:40.136Z,3.40
2023-04-17T14:29:07.284Z,2.63
2023-04-17T14:31:34.533Z,2.97
2023-04-17T14:34:01.682Z,3.30
2023-04-17T14:36:28.878Z,2.97
2023-04-17T14:38:56.130Z,3.00
2023-04-17T14:41:23.642Z,3.43
2023-04-17T14:43:50.846Z,3.20
2023-04-17T14:46:17.998Z,3.60
2023-04-17T14:48:54.689Z,3.47
2023-04-17T14:51:24.480Z,3.77
2023-04-17T14:53:53.129Z,3.80
2023-04-17T14:56:21.634Z,3.90
2023-04-17T14:58:49.114Z,3.40
2023-04-17T15:01:16.528Z,3.67
2023-04-17T15:03:47.339Z,3.50
2023-04-17T15:06:15.643Z,3.33
2023-04-17T15:08:42.824Z,3.33
2023-04-17T15:11:10.379Z,3.37
2023-04-17T15:13:39.432Z,3.07
2023-04-17T15:16:06.899Z,3.30
2023-04-17T15:18:36.098Z,3.07
2023-04-17T15:21:03.329Z,3.20
2023-04-17T15:23:30.609Z,3.20
2023-04-17T15:25:58.321Z,3.33
2023-04-17T15:28:25.994Z,3.50
2023-04-17T15:30:53.164Z,2.97
2023-04-17T15:33:20.535Z,3.40
2023-04-17T15:35:48.091Z,3.30
2023-04-17T15:38:15.355Z,3.40
2023-04-17T15:40:42.542Z,3.30
2023-04-17T15:43:10.681Z,3.50
2023-04-17T15:45:37.996Z,3.70
2023-04-17T15:48:05.341Z,3.60
2023-04-17T15:50:32.648Z,3.60
2023-04-17T15:53:01.082Z,3.10
2023-04-17T15:55:28.234Z,3.23
2023-04-17T15:57:56.061Z,3.30
2023-04-17T16:00:23.268Z,3.10
2023-04-17T16:02:51.890Z,3.30
2023-04-17T16:05:19.754Z,4.97
2023-04-17T16:07:47.365Z,5.05
2023-04-17T16:10:14.892Z,4.65
2023-04-17T16:12:46.134Z,6.25
2023-04-17T16:15:14.734Z,5.00
2023-04-17T16:17:42.001Z,4.63
2023-04-17T16:20:09.512Z,6.28
2023-04-17T16:22:36.620Z,4.50
2023-04-17T16:25:04.159Z,4.30
2023-04-17T16:27:32.394Z,3.60
2023-04-17T16:29:59.873Z,3.70
2023-04-17T16:32:27.969Z,3.40
2023-04-17T16:34:55.610Z,3.30
2023-04-17T16:37:22.800Z,3.67
2023-04-17T16:39:50.830Z,3.53
2023-04-17T16:42:18.235Z,3.88
2023-04-17T16:44:48.752Z,3.15
2023-04-17T16:47:15.980Z,3.33
2023-04-17T16:49:43.409Z,3.10
2023-04-17T16:52:10.616Z,3.13
2023-04-17T16:54:37.793Z,3.20
2023-04-17T16:57:05.875Z,3.25
2023-04-17T16:59:33.385Z,3.20
2023-04-17T17:02:03.406Z,3.50
2023-04-17T17:04:31.439Z,3.15
2023-04-17T17:06:58.601Z,3.28
2023-04-17T17:09:26.300Z,3.28
2023-04-17T17:11:53.616Z,2.92
2023-04-17T17:14:20.860Z,2.92
2023-04-17T17:16:48.015Z,3.25
2023-04-17T17:19:15.338Z,3.00
2023-04-17T17:21:42.577Z,3.20
2023-04-17T17:24:09.782Z,2.60
2023-04-17T17:26:37.340Z,3.00
2023-04-17T17:29:04.812Z,3.07
2023-04-17T17:31:33.870Z,3.30
2023-04-17T17:34:11.783Z,3.00
2023-04-17T17:36:49.395Z,3.17
2023-04-17T17:39:16.923Z,3.03
2023-04-17T17:41:46.608Z,2.90
2023-04-17T17:44:14.960Z,2.80
2023-04-17T17:46:42.340Z,2.97
2023-04-17T17:49:09.514Z,2.67
2023-04-17T17:51:36.700Z,2.80
2023-04-17T17:54:03.863Z,2.90
2023-04-17T17:56:31.078Z,2.67
2023-04-17T17:58:58.332Z,2.93
2023-04-17T18:01:25.547Z,2.70
2023-04-17T18:03:53.377Z,2.90
2023-04-17T18:06:21.118Z,2.50
2023-04-17T18:08:48.551Z,2.60
2023-04-17T18:11:15.810Z,2.70
2023-04-17T18:13:42.915Z,2.70
2023-04-17T18:16:10.486Z,2.83
2023-04-17T18:18:37.808Z,3.20
2023-04-17T18:21:08.516Z,2.97
2023-04-17T18:23:35.970Z,3.40
2023-04-17T18:26:03.719Z,3.50
2023-04-17T18:28:30.997Z,2.70
2023-04-17T18:30:59.392Z,2.50
2023-04-17T18:33:26.616Z,2.50
2023-04-17T18:35:53.812Z,2.80
2023-04-17T18:38:20.959Z,2.77
2023-04-17T18:40:48.109Z,2.77
2023-04-17T18:43:15.434Z,2.80
2023-04-17T18:45:42.597Z,2.90
2023-04-17T18:48:09.831Z,2.73
2023-04-17T18:50:38.697Z,2.83
2023-04-17T18:53:05.888Z,2.70
2023-04-17T18:55:33.201Z,2.77
2023-04-17T18:58:00.484Z,2.60
2023-04-17T19:00:27.651Z,3.00
2023-04-17T19:02:54.933Z,3.00
2023-04-17T19:05:22.821Z,2.80
2023-04-17T19:07:51.180Z,2.63
2023-04-17T19:10:18.500Z,2.70
2023-04-17T19:12:46.094Z,2.83
2023-04-17T19:15:13.309Z,2.73
2023-04-17T19:17:40.584Z,2.67
2023-04-17T19:20:08.258Z,2.83
2023-04-17T19:22:35.594Z,2.70
2023-04-17T19:25:02.731Z,2.97
2023-04-17T19:27:29.861Z,2.53
2023-04-17T19:29:57.509Z,2.70
2023-04-17T19:32:24.738Z,2.43
2023-04-17T19:34:52.114Z,2.70
2023-04-17T19:37:19.303Z,2.70
2023-04-17T19:39:46.405Z,2.50
2023-04-17T19:42:13.566Z,2.67
2023-04-17T19:44:40.739Z,2.53
2023-04-17T19:47:08.106Z,2.67
2023-04-17T19:49:35.482Z,2.60
2023-04-17T19:52:02.973Z,2.50
2023-04-17T19:54:30.288Z,2.63
2023-04-17T19:56:57.482Z,2.80
2023-04-17T19:59:24.688Z,2.63
2023-04-17T20:01:51.967Z,3.10
2023-04-17T20:04:19.313Z,3.00
2023-04-17T20:06:46.566Z,2.73
2023-04-17T20:09:14.953Z,2.60
2023-04-17T20:11:42.393Z,2.70
2023-04-17T20:14:09.635Z,2.60
2023-04-17T20:16:36.880Z,2.67
2023-04-17T20:19:04.131Z,3.00
2023-04-17T20:21:31.306Z,2.80
2023-04-17T20:23:59.477Z,2.50
2023-04-17T20:26:26.781Z,3.00
2023-04-17T20:28:56.759Z,2.50
2023-04-17T20:31:23.962Z,2.63
2023-04-17T20:33:51.140Z,2.60
2023-04-17T20:36:18.333Z,2.63
2023-04-17T20:38:46.141Z,2.77
2023-04-17T20:41:13.302Z,2.60
2023-04-17T20:43:40.742Z,2.70
2023-04-17T20:46:07.989Z,2.73
2023-04-17T20:48:35.166Z,3.00
2023-04-17T20:51:05.413Z,2.73
2023-04-17T20:53:32.882Z,2.97
2023-04-17T20:56:00.103Z,2.80
2023-04-17T20:58:27.308Z,3.00
2023-04-17T21:01:01.278Z,2.70
2023-04-17T21:03:32.176Z,2.80
2023-04-17T21:05:59.663Z,2.97
2023-04-17T21:08:26.836Z,2.93
2023-04-17T21:10:54.050Z,2.70
2023-04-17T21:13:21.229Z,2.67
2023-04-17T21:15:48.396Z,2.70
2023-04-17T21:18:15.606Z,3.00
2023-04-17T21:20:42.783Z,2.87
2023-04-17T21:23:09.971Z,2.70
2023-04-17T21:25:37.168Z,2.80
2023-04-17T21:28:04.424Z,2.70
2023-04-17T21:30:31.815Z,2.80
2023-04-17T21:32:59.019Z,2.70
2023-04-17T21:35:27.093Z,2.70
2023-04-17T21:37:54.355Z,2.60
2023-04-17T21:40:21.523Z,2.90
2023-04-17T21:42:48.658Z,3.27
2023-04-17T21:45:16.252Z,2.80
2023-04-17T21:47:43.454Z,2.90
2023-04-17T21:50:10.916Z,3.00
2023-04-17T21:52:38.234Z,2.50
2023-04-17T21:55:07.626Z,3.20
2023-04-17T21:57:35.349Z,2.90
2023-04-17T22:00:03.271Z,2.83
2023-04-17T22:02:30.469Z,2.90
2023-04-17T22:04:57.708Z,2.97
2023-04-17T22:07:24.979Z,2.97
2023-04-17T22:09:52.123Z,3.20
2023-04-17T22:12:20.687Z,3.10
2023-04-17T22:14:50.963Z,2.57
2023-04-17T22:17:18.124Z,3.07
2023-04-17T22:19:45.264Z,2.73
2023-04-17T22:22:12.391Z,2.50
2023-04-17T22:24:39.521Z,3.10
2023-04-17T22:27:06.767Z,2.90
2023-04-17T22:29:33.947Z,2.80
2023-04-17T22:32:02.252Z,2.90
2023-04-17T22:34:29.466Z,2.90
2023-04-17T22:36:56.608Z,2.77
2023-04-17T22:39:23.761Z,2.80
2023-04-17T22:41:51.384Z,3.10
2023-04-17T22:44:18.560Z,2.90
2023-04-17T22:46:45.861Z,3.00
2023-04-17T22:49:14.249Z,3.00
2023-04-17T22:51:41.508Z,2.80
2023-04-17T22:54:19.140Z,2.70
2023-04-17T22:56:49.121Z,2.80
2023-04-17T22:59:16.331Z,3.00
2023-04-17T23:01:43.537Z,2.87
2023-04-17T23:04:10.868Z,3.30
2023-04-17T23:06:38.082Z,3.40
2023-04-17T23:09:05.293Z,3.30
2023-04-17T23:11:32.893Z,3.30
2023-04-17T23:14:00.434Z,3.87
2023-04-17T23:16:27.603Z,3.13
2023-04-17T23:18:54.777Z,3.07
2023-04-17T23:21:21.969Z,2.70
2023-04-17T23:23:49.105Z,2.93
2023-04-17T23:26:16.305Z,2.90
2023-04-17T23:28:43.752Z,2.83
2023-04-17T23:31:10.975Z,3.30
2023-04-17T23:33:38.163Z,3.10
2023-04-17T23:36:05.423Z,3.10
2023-04-17T23:38:32.562Z,2.80
2023-04-17T23:40:59.706Z,2.83
2023-04-17T23:43:26.847Z,2.80
2023-04-17T23:45:54.127Z,3.10
2023-04-17T23:48:21.491Z,2.90
2023-04-17T23:50:48.622Z,2.83
2023-04-17T23:53:15.855Z,2.90
2023-04-17T23:55:43.044Z,3.30
2023-04-17T23:58:10.580Z,2.67
